KAOH Airport (Lima Allen County) Information

FAA: AOH - ICAO: KAOH

KAOH Airport Location

State Ohio
County Allen
City Lima
KAOH Airport is 5 miles southeast of Lima, OH.
Latitude 40-42-26.9207N
Longitude 084-01-37.4810W
Elevation 975ft

KAOH Airport METARs

METAR KAOH 240953Z AUTO 21007KT 10SM CLR 11/06 A3001 RMK AO2 SLP162 T01060056 $
Altimeter 30.01"
Temperature 10.6°C (51.1°F)
Wind 210° at 7KT
Clouds Skies are clear.
Visibility 10.0mi
Time observed: 2021-09-24T09:53:00Z

KAOH Airport Details

Status Operational
Activation N/A
Ownership Public
Usage Public
Chart DETROIT
ATC on-site No
Beacon schedule sunset-sunrise
Beacon color clear green

KAOH Airport Contacts

Owner ALLEN CO REGIONAL ARPT AUTH
Owner address PO BOX 1401, LIMA, OH 45802-1401
Owner phone 419-227-3225
Manager ISAAC HOUSER
Manager address 921 E FRANKLIN, KENTON, OH 43326
Manager phone 419-673-0761

KAOH Airport (Lima Allen County) Radio Frequencies

KAOH (Airport) Radio Frequencies

UNICOM 122.7
Common traffic advisory frequency (CTAF) 122.7